Paramount Hamilton — 2CWB2 — position and weather

sailwx.info

Track history (hours):
 
Tides and Currents Weather Stations Pressure Air Temp Water Temp Dewpoint Dewpoint Depression Visibility Wind Speed Wind Dir Waves Ship Positions

Paramount Hamilton

Last reported at 2014-Aug-29 09:18 UTC. Time now 2014-Aug-29 10:23 UTC.
Position N 29°55' W 090°08'.

Length 250 m; draft 8 m.

Type: Tanker. MMSI: 235076274.

Date/timePositionNaut miles runAvg speedWind from/ knotsBaromVisibWave heightAir tempDewpointWater temp
2014-Aug-29 09:18N 29°55' W 090°08'23 5.8
2014-Aug-29 05:22N 29°36' W 089°52'  
2014-Aug-22 16:31N 30°03' W 090°29'1311.8
2014-Aug-22 15:25N 30°01' W 090°44'29 6.9
2014-Aug-22 11:10N 30°19' W 091°11'3 5.7
2014-Aug-22 10:33N 30°20' W 091°14'3 0.1
2014-Aug-20 10:29N 30°24' W 091°13'5 4.5
2014-Aug-20 09:23N 30°20' W 091°09'6 3.1
2014-Aug-20 07:21N 30°14' W 091°08'8 4.2
2014-Aug-20 05:23N 30°09' W 091°00'4 4.4
2014-Aug-20 04:32N 30°07' W 090°57'4 4.6
2014-Aug-20 03:33N 30°04' W 090°53'6 6.1
2014-Aug-20 02:33N 30°00' W 090°47'8 8.0
2014-Aug-20 01:33N 30°03' W 090°39'7 7.0
2014-Aug-20 00:33N 30°03' W 090°31'8 7.6
2014-Aug-19 23:33N 29°59' W 090°24'6 6.4
2014-Aug-19 22:33N 29°58' W 090°16'  
Track history (hours):
 
Tides and Currents Weather Stations Pressure Air Temp Water Temp Dewpoint Dewpoint Depression Visibility Wind Speed Wind Dir Waves Ship Positions

Paramount Hamilton

Last reported at 2014-Aug-29 09:18 UTC. Time now 2014-Aug-29 10:23 UTC.
Position N 29°55' W 090°08'.

Length 250 m; draft 8 m.

Type: Tanker. MMSI: 235076274.

Date/timePositionNaut miles runAvg speedWind from/ knotsBaromVisibWave heightAir tempDewpointWater temp
2014-Aug-29 09:18N 29°55' W 090°08'23 5.8
2014-Aug-29 05:22N 29°36' W 089°52'  
2014-Aug-22 16:31N 30°03' W 090°29'1311.8
2014-Aug-22 15:25N 30°01' W 090°44'29 6.9
2014-Aug-22 11:10N 30°19' W 091°11'3 5.7
2014-Aug-22 10:33N 30°20' W 091°14'3 0.1
2014-Aug-20 10:29N 30°24' W 091°13'5 4.5
2014-Aug-20 09:23N 30°20' W 091°09'6 3.1
2014-Aug-20 07:21N 30°14' W 091°08'8 4.2
2014-Aug-20 05:23N 30°09' W 091°00'4 4.4
2014-Aug-20 04:32N 30°07' W 090°57'4 4.6
2014-Aug-20 03:33N 30°04' W 090°53'6 6.1
2014-Aug-20 02:33N 30°00' W 090°47'8 8.0
2014-Aug-20 01:33N 30°03' W 090°39'7 7.0
2014-Aug-20 00:33N 30°03' W 090°31'8 7.6
2014-Aug-19 23:33N 29°59' W 090°24'6 6.4
2014-Aug-19 22:33N 29°58' W 090°16'  

Dump ship's entire track history